sensor_id;sensor_type;location;lat;lon;timestamp;P1;durP1;ratioP1;P2;durP2;ratioP2
28481;SDS011;15703;49.588;6.260;2023-02-10T00:00:33;32.20;;;21.10;;
28481;SDS011;15703;49.588;6.260;2023-02-10T00:02:56;30.90;;;21.10;;
28481;SDS011;15703;49.588;6.260;2023-02-10T00:05:18;29.30;;;20.07;;
28481;SDS011;15703;49.588;6.260;2023-02-10T00:07:40;33.53;;;20.40;;
28481;SDS011;15703;49.588;6.260;2023-02-10T00:10:03;29.90;;;21.43;;
28481;SDS011;15703;49.588;6.260;2023-02-10T00:12:25;28.97;;;19.60;;
28481;SDS011;15703;49.588;6.260;2023-02-10T00:14:55;31.00;;;20.37;;
28481;SDS011;15703;49.588;6.260;2023-02-10T00:17:17;32.93;;;21.27;;
28481;SDS011;15703;49.588;6.260;2023-02-10T00:19:40;37.37;;;22.07;;
28481;SDS011;15703;49.588;6.260;2023-02-10T00:22:02;29.77;;;21.37;;
28481;SDS011;15703;49.588;6.260;2023-02-10T00:24:25;33.27;;;21.20;;
28481;SDS011;15703;49.588;6.260;2023-02-10T00:26:47;36.03;;;22.20;;
28481;SDS011;15703;49.588;6.260;2023-02-10T00:29:10;35.60;;;22.03;;
28481;SDS011;15703;49.588;6.260;2023-02-10T00:31:32;38.27;;;23.73;;
28481;SDS011;15703;49.588;6.260;2023-02-10T00:33:55;41.50;;;23.53;;
28481;SDS011;15703;49.588;6.260;2023-02-10T00:36:17;31.80;;;21.90;;
28481;SDS011;15703;49.588;6.260;2023-02-10T00:38:40;29.43;;;22.00;;
28481;SDS011;15703;49.588;6.260;2023-02-10T00:43:25;37.47;;;25.47;;
28481;SDS011;15703;49.588;6.260;2023-02-10T00:45:48;37.03;;;23.50;;
28481;SDS011;15703;49.588;6.260;2023-02-10T00:48:10;34.13;;;23.30;;
28481;SDS011;15703;49.588;6.260;2023-02-10T00:50:32;34.97;;;23.93;;
28481;SDS011;15703;49.588;6.260;2023-02-10T00:52:56;34.13;;;22.33;;
28481;SDS011;15703;49.588;6.260;2023-02-10T00:55:19;36.57;;;23.77;;
28481;SDS011;15703;49.588;6.260;2023-02-10T00:57:42;32.03;;;22.90;;
28481;SDS011;15703;49.588;6.260;2023-02-10T01:00:04;38.03;;;23.00;;
28481;SDS011;15703;49.588;6.260;2023-02-10T01:02:27;37.03;;;23.53;;
28481;SDS011;15703;49.588;6.260;2023-02-10T01:04:50;29.47;;;21.53;;
28481;SDS011;15703;49.588;6.260;2023-02-10T01:07:12;35.67;;;23.07;;
28481;SDS011;15703;49.588;6.260;2023-02-10T01:09:39;31.20;;;21.53;;
28481;SDS011;15703;49.588;6.260;2023-02-10T01:12:01;29.30;;;21.13;;
28481;SDS011;15703;49.588;6.260;2023-02-10T01:14:24;34.13;;;22.87;;
28481;SDS011;15703;49.588;6.260;2023-02-10T01:16:47;32.83;;;22.90;;
28481;SDS011;15703;49.588;6.260;2023-02-10T01:19:10;29.63;;;20.23;;
28481;SDS011;15703;49.588;6.260;2023-02-10T01:21:33;29.00;;;19.83;;
28481;SDS011;15703;49.588;6.260;2023-02-10T01:23:58;29.17;;;20.63;;
28481;SDS011;15703;49.588;6.260;2023-02-10T01:26:21;32.70;;;22.10;;
28481;SDS011;15703;49.588;6.260;2023-02-10T01:28:44;35.87;;;21.63;;
28481;SDS011;15703;49.588;6.260;2023-02-10T01:31:09;31.93;;;22.70;;
28481;SDS011;15703;49.588;6.260;2023-02-10T01:33:33;31.20;;;20.13;;
28481;SDS011;15703;49.588;6.260;2023-02-10T01:35:55;27.37;;;19.67;;
28481;SDS011;15703;49.588;6.260;2023-02-10T01:38:22;28.27;;;20.77;;
28481;SDS011;15703;49.588;6.260;2023-02-10T01:40:54;28.03;;;19.87;;
28481;SDS011;15703;49.588;6.260;2023-02-10T01:43:17;30.17;;;20.87;;
28481;SDS011;15703;49.588;6.260;2023-02-10T01:45:40;29.33;;;19.57;;
28481;SDS011;15703;49.588;6.260;2023-02-10T01:48:04;29.93;;;19.73;;
28481;SDS011;15703;49.588;6.260;2023-02-10T01:50:29;29.00;;;20.13;;
28481;SDS011;15703;49.588;6.260;2023-02-10T01:52:56;27.77;;;20.53;;
28481;SDS011;15703;49.588;6.260;2023-02-10T01:55:20;27.30;;;18.80;;
28481;SDS011;15703;49.588;6.260;2023-02-10T01:57:44;31.70;;;21.27;;
28481;SDS011;15703;49.588;6.260;2023-02-10T02:00:07;27.40;;;19.43;;
28481;SDS011;15703;49.588;6.260;2023-02-10T02:02:33;31.47;;;20.87;;
28481;SDS011;15703;49.588;6.260;2023-02-10T02:04:59;31.53;;;20.47;;
28481;SDS011;15703;49.588;6.260;2023-02-10T02:07:23;30.80;;;20.93;;
28481;SDS011;15703;49.588;6.260;2023-02-10T02:09:48;31.80;;;22.07;;
28481;SDS011;15703;49.588;6.260;2023-02-10T02:15:14;26.10;;;19.37;;
28481;SDS011;15703;49.588;6.260;2023-02-10T02:22:59;27.63;;;20.33;;
28481;SDS011;15703;49.588;6.260;2023-02-10T02:28:23;25.73;;;19.43;;
28481;SDS011;15703;49.588;6.260;2023-02-10T02:33:46;28.00;;;19.97;;
28481;SDS011;15703;49.588;6.260;2023-02-10T02:36:16;31.97;;;21.33;;
28481;SDS011;15703;49.588;6.260;2023-02-10T02:38:41;31.60;;;20.87;;
28481;SDS011;15703;49.588;6.260;2023-02-10T02:41:04;27.63;;;19.37;;
28481;SDS011;15703;49.588;6.260;2023-02-10T02:43:27;30.07;;;20.90;;
28481;SDS011;15703;49.588;6.260;2023-02-10T02:45:54;29.23;;;20.37;;
28481;SDS011;15703;49.588;6.260;2023-02-10T02:50:45;29.50;;;20.67;;
28481;SDS011;15703;49.588;6.260;2023-02-10T02:58:11;32.67;;;21.20;;
28481;SDS011;15703;49.588;6.260;2023-02-10T03:00:35;32.53;;;21.27;;
28481;SDS011;15703;49.588;6.260;2023-02-10T03:02:58;25.40;;;17.97;;
28481;SDS011;15703;49.588;6.260;2023-02-10T03:05:27;27.70;;;19.70;;
28481;SDS011;15703;49.588;6.260;2023-02-10T03:07:51;26.83;;;19.60;;
28481;SDS011;15703;49.588;6.260;2023-02-10T03:10:13;28.77;;;19.97;;
28481;SDS011;15703;49.588;6.260;2023-02-10T03:12:36;26.77;;;17.67;;
28481;SDS011;15703;49.588;6.260;2023-02-10T03:14:58;22.37;;;16.97;;
28481;SDS011;15703;49.588;6.260;2023-02-10T03:17:21;29.60;;;19.30;;
28481;SDS011;15703;49.588;6.260;2023-02-10T03:19:43;26.50;;;18.90;;
28481;SDS011;15703;49.588;6.260;2023-02-10T03:22:05;24.77;;;17.57;;
28481;SDS011;15703;49.588;6.260;2023-02-10T03:24:28;26.63;;;18.83;;
28481;SDS011;15703;49.588;6.260;2023-02-10T03:26:50;24.53;;;17.40;;
28481;SDS011;15703;49.588;6.260;2023-02-10T03:29:13;27.47;;;18.30;;
28481;SDS011;15703;49.588;6.260;2023-02-10T03:31:35;22.33;;;16.63;;
28481;SDS011;15703;49.588;6.260;2023-02-10T03:33:58;24.57;;;18.23;;
28481;SDS011;15703;49.588;6.260;2023-02-10T03:36:20;30.70;;;20.87;;
28481;SDS011;15703;49.588;6.260;2023-02-10T03:38:42;27.33;;;19.00;;
28481;SDS011;15703;49.588;6.260;2023-02-10T03:41:05;26.00;;;18.47;;
28481;SDS011;15703;49.588;6.260;2023-02-10T03:43:27;24.57;;;18.63;;
28481;SDS011;15703;49.588;6.260;2023-02-10T03:45:49;25.57;;;18.37;;
28481;SDS011;15703;49.588;6.260;2023-02-10T03:48:15;27.27;;;19.53;;
28481;SDS011;15703;49.588;6.260;2023-02-10T03:50:37;24.87;;;19.20;;
28481;SDS011;15703;49.588;6.260;2023-02-10T03:53:00;28.30;;;20.03;;
28481;SDS011;15703;49.588;6.260;2023-02-10T03:55:22;26.73;;;21.00;;
28481;SDS011;15703;49.588;6.260;2023-02-10T03:57:45;32.07;;;21.73;;
28481;SDS011;15703;49.588;6.260;2023-02-10T04:00:08;31.93;;;21.43;;
28481;SDS011;15703;49.588;6.260;2023-02-10T04:02:33;29.97;;;20.97;;
28481;SDS011;15703;49.588;6.260;2023-02-10T04:04:56;30.13;;;20.30;;
28481;SDS011;15703;49.588;6.260;2023-02-10T04:07:18;27.00;;;19.07;;
28481;SDS011;15703;49.588;6.260;2023-02-10T04:09:40;28.37;;;20.67;;
28481;SDS011;15703;49.588;6.260;2023-02-10T04:12:03;24.73;;;18.63;;
28481;SDS011;15703;49.588;6.260;2023-02-10T04:14:25;25.80;;;19.60;;
28481;SDS011;15703;49.588;6.260;2023-02-10T04:16:47;26.17;;;19.07;;
28481;SDS011;15703;49.588;6.260;2023-02-10T04:19:09;26.60;;;19.30;;
28481;SDS011;15703;49.588;6.260;2023-02-10T04:21:32;31.87;;;20.57;;
28481;SDS011;15703;49.588;6.260;2023-02-10T04:23:54;29.37;;;21.47;;
28481;SDS011;15703;49.588;6.260;2023-02-10T04:26:17;32.70;;;21.57;;
28481;SDS011;15703;49.588;6.260;2023-02-10T04:28:39;28.73;;;20.60;;
28481;SDS011;15703;49.588;6.260;2023-02-10T04:31:01;27.97;;;19.70;;
28481;SDS011;15703;49.588;6.260;2023-02-10T04:33:24;26.40;;;20.53;;
28481;SDS011;15703;49.588;6.260;2023-02-10T04:35:47;26.30;;;19.23;;
28481;SDS011;15703;49.588;6.260;2023-02-10T04:38:10;28.30;;;19.40;;
28481;SDS011;15703;49.588;6.260;2023-02-10T04:40:32;29.93;;;19.90;;
28481;SDS011;15703;49.588;6.260;2023-02-10T04:42:55;32.97;;;21.40;;
28481;SDS011;15703;49.588;6.260;2023-02-10T04:45:17;32.40;;;21.87;;
28481;SDS011;15703;49.588;6.260;2023-02-10T04:47:39;24.40;;;18.80;;
28481;SDS011;15703;49.588;6.260;2023-02-10T04:50:01;29.77;;;20.47;;
28481;SDS011;15703;49.588;6.260;2023-02-10T04:52:25;28.50;;;20.50;;
28481;SDS011;15703;49.588;6.260;2023-02-10T04:54:47;26.20;;;18.87;;
28481;SDS011;15703;49.588;6.260;2023-02-10T04:57:10;26.93;;;19.13;;
28481;SDS011;15703;49.588;6.260;2023-02-10T04:59:32;26.83;;;19.00;;
28481;SDS011;15703;49.588;6.260;2023-02-10T05:01:54;26.77;;;19.00;;
28481;SDS011;15703;49.588;6.260;2023-02-10T05:04:16;25.13;;;17.70;;
28481;SDS011;15703;49.588;6.260;2023-02-10T05:06:39;25.93;;;20.03;;
28481;SDS011;15703;49.588;6.260;2023-02-10T05:09:01;29.67;;;20.23;;
28481;SDS011;15703;49.588;6.260;2023-02-10T05:11:23;28.47;;;20.90;;
28481;SDS011;15703;49.588;6.260;2023-02-10T05:13:45;29.83;;;19.97;;
28481;SDS011;15703;49.588;6.260;2023-02-10T05:16:08;30.57;;;22.00;;
28481;SDS011;15703;49.588;6.260;2023-02-10T05:18:32;34.17;;;23.43;;
28481;SDS011;15703;49.588;6.260;2023-02-10T05:20:54;31.73;;;21.90;;
28481;SDS011;15703;49.588;6.260;2023-02-10T05:23:16;30.67;;;22.67;;
28481;SDS011;15703;49.588;6.260;2023-02-10T05:25:39;30.10;;;21.03;;
28481;SDS011;15703;49.588;6.260;2023-02-10T05:28:01;31.80;;;22.00;;
28481;SDS011;15703;49.588;6.260;2023-02-10T05:30:24;30.23;;;21.43;;
28481;SDS011;15703;49.588;6.260;2023-02-10T05:32:47;35.57;;;22.23;;
28481;SDS011;15703;49.588;6.260;2023-02-10T05:35:09;32.00;;;22.23;;
28481;SDS011;15703;49.588;6.260;2023-02-10T05:37:34;34.90;;;22.10;;
28481;SDS011;15703;49.588;6.260;2023-02-10T05:39:57;30.87;;;21.50;;
28481;SDS011;15703;49.588;6.260;2023-02-10T05:42:20;33.17;;;23.03;;
28481;SDS011;15703;49.588;6.260;2023-02-10T05:44:42;35.43;;;22.80;;
28481;SDS011;15703;49.588;6.260;2023-02-10T05:47:08;34.07;;;22.40;;
28481;SDS011;15703;49.588;6.260;2023-02-10T05:49:30;32.60;;;22.47;;
28481;SDS011;15703;49.588;6.260;2023-02-10T05:51:54;30.40;;;22.07;;
28481;SDS011;15703;49.588;6.260;2023-02-10T05:54:17;36.73;;;22.10;;
28481;SDS011;15703;49.588;6.260;2023-02-10T05:56:47;33.17;;;22.00;;
28481;SDS011;15703;49.588;6.260;2023-02-10T05:59:11;32.67;;;22.13;;
28481;SDS011;15703;49.588;6.260;2023-02-10T06:01:36;32.60;;;22.40;;
28481;SDS011;15703;49.588;6.260;2023-02-10T06:03:58;34.60;;;22.10;;
28481;SDS011;15703;49.588;6.260;2023-02-10T06:06:21;33.23;;;22.37;;
28481;SDS011;15703;49.588;6.260;2023-02-10T06:08:43;30.87;;;21.20;;
28481;SDS011;15703;49.588;6.260;2023-02-10T06:11:05;28.80;;;21.43;;
28481;SDS011;15703;49.588;6.260;2023-02-10T06:13:28;36.87;;;22.50;;
28481;SDS011;15703;49.588;6.260;2023-02-10T06:15:50;31.07;;;22.73;;
28481;SDS011;15703;49.588;6.260;2023-02-10T06:18:15;35.40;;;22.20;;
28481;SDS011;15703;49.588;6.260;2023-02-10T06:20:38;33.40;;;21.63;;
28481;SDS011;15703;49.588;6.260;2023-02-10T06:23:00;32.97;;;22.73;;
28481;SDS011;15703;49.588;6.260;2023-02-10T06:25:22;34.30;;;22.90;;
28481;SDS011;15703;49.588;6.260;2023-02-10T06:27:45;30.03;;;22.57;;
28481;SDS011;15703;49.588;6.260;2023-02-10T06:30:07;32.57;;;21.93;;
28481;SDS011;15703;49.588;6.260;2023-02-10T06:32:30;34.47;;;22.87;;
28481;SDS011;15703;49.588;6.260;2023-02-10T06:34:52;31.03;;;21.57;;
28481;SDS011;15703;49.588;6.260;2023-02-10T06:37:17;31.90;;;21.20;;
28481;SDS011;15703;49.588;6.260;2023-02-10T06:39:40;31.07;;;21.87;;
28481;SDS011;15703;49.588;6.260;2023-02-10T06:42:02;34.50;;;24.53;;
28481;SDS011;15703;49.588;6.260;2023-02-10T06:44:25;33.93;;;23.77;;
28481;SDS011;15703;49.588;6.260;2023-02-10T06:46:47;34.33;;;23.20;;
28481;SDS011;15703;49.588;6.260;2023-02-10T06:49:10;36.63;;;24.03;;
28481;SDS011;15703;49.588;6.260;2023-02-10T06:51:32;37.13;;;24.57;;
28481;SDS011;15703;49.588;6.260;2023-02-10T06:53:55;35.40;;;24.63;;
28481;SDS011;15703;49.588;6.260;2023-02-10T06:56:17;37.30;;;23.43;;
28481;SDS011;15703;49.588;6.260;2023-02-10T06:58:58;39.53;;;23.90;;
28481;SDS011;15703;49.588;6.260;2023-02-10T07:01:20;36.93;;;23.77;;
28481;SDS011;15703;49.588;6.260;2023-02-10T07:06:33;35.13;;;23.27;;
28481;SDS011;15703;49.588;6.260;2023-02-10T07:08:55;36.13;;;24.63;;
28481;SDS011;15703;49.588;6.260;2023-02-10T07:11:17;37.63;;;24.93;;
28481;SDS011;15703;49.588;6.260;2023-02-10T07:13:40;40.60;;;26.13;;
28481;SDS011;15703;49.588;6.260;2023-02-10T07:16:07;39.20;;;25.63;;
28481;SDS011;15703;49.588;6.260;2023-02-10T07:18:34;36.97;;;23.90;;
28481;SDS011;15703;49.588;6.260;2023-02-10T07:21:41;37.27;;;23.50;;
28481;SDS011;15703;49.588;6.260;2023-02-10T07:24:04;34.40;;;24.50;;
28481;SDS011;15703;49.588;6.260;2023-02-10T07:26:27;34.93;;;23.80;;
28481;SDS011;15703;49.588;6.260;2023-02-10T07:28:50;35.60;;;24.07;;
28481;SDS011;15703;49.588;6.260;2023-02-10T07:31:13;30.03;;;22.67;;
28481;SDS011;15703;49.588;6.260;2023-02-10T07:33:44;36.10;;;23.27;;
28481;SDS011;15703;49.588;6.260;2023-02-10T07:36:07;38.53;;;25.27;;
28481;SDS011;15703;49.588;6.260;2023-02-10T07:38:34;35.27;;;23.70;;
28481;SDS011;15703;49.588;6.260;2023-02-10T07:40:58;39.47;;;25.27;;
28481;SDS011;15703;49.588;6.260;2023-02-10T07:43:21;38.80;;;25.30;;
28481;SDS011;15703;49.588;6.260;2023-02-10T07:46:16;39.13;;;25.10;;
28481;SDS011;15703;49.588;6.260;2023-02-10T07:48:39;40.00;;;25.13;;
28481;SDS011;15703;49.588;6.260;2023-02-10T07:51:02;41.23;;;25.93;;
28481;SDS011;15703;49.588;6.260;2023-02-10T07:53:24;39.27;;;25.70;;
28481;SDS011;15703;49.588;6.260;2023-02-10T07:55:53;39.33;;;25.07;;
28481;SDS011;15703;49.588;6.260;2023-02-10T07:58:15;38.10;;;25.47;;
28481;SDS011;15703;49.588;6.260;2023-02-10T08:00:38;35.40;;;24.23;;
28481;SDS011;15703;49.588;6.260;2023-02-10T08:03:00;35.87;;;22.70;;
28481;SDS011;15703;49.588;6.260;2023-02-10T08:06:03;36.40;;;22.90;;
28481;SDS011;15703;49.588;6.260;2023-02-10T08:08:25;37.37;;;24.17;;
28481;SDS011;15703;49.588;6.260;2023-02-10T08:10:48;36.07;;;23.93;;
28481;SDS011;15703;49.588;6.260;2023-02-10T08:13:11;39.33;;;24.47;;
28481;SDS011;15703;49.588;6.260;2023-02-10T08:15:33;36.37;;;25.37;;
28481;SDS011;15703;49.588;6.260;2023-02-10T08:17:57;33.83;;;23.10;;
28481;SDS011;15703;49.588;6.260;2023-02-10T08:20:26;40.30;;;28.27;;
28481;SDS011;15703;49.588;6.260;2023-02-10T08:22:48;51.70;;;32.03;;
28481;SDS011;15703;49.588;6.260;2023-02-10T08:25:14;58.70;;;38.93;;
28481;SDS011;15703;49.588;6.260;2023-02-10T08:27:37;34.03;;;23.90;;
28481;SDS011;15703;49.588;6.260;2023-02-10T08:29:59;36.33;;;21.90;;
28481;SDS011;15703;49.588;6.260;2023-02-10T08:32:27;41.53;;;26.27;;
28481;SDS011;15703;49.588;6.260;2023-02-10T08:34:51;35.87;;;23.57;;
28481;SDS011;15703;49.588;6.260;2023-02-10T08:37:14;37.03;;;24.43;;
28481;SDS011;15703;49.588;6.260;2023-02-10T08:39:37;30.17;;;22.47;;
28481;SDS011;15703;49.588;6.260;2023-02-10T08:41:59;32.43;;;22.10;;
28481;SDS011;15703;49.588;6.260;2023-02-10T08:44:21;36.80;;;23.50;;
28481;SDS011;15703;49.588;6.260;2023-02-10T08:46:44;35.47;;;22.77;;
28481;SDS011;15703;49.588;6.260;2023-02-10T08:49:06;31.63;;;21.77;;
28481;SDS011;15703;49.588;6.260;2023-02-10T08:51:28;34.40;;;22.17;;
28481;SDS011;15703;49.588;6.260;2023-02-10T08:53:53;33.43;;;21.63;;
28481;SDS011;15703;49.588;6.260;2023-02-10T08:56:17;31.97;;;20.87;;
28481;SDS011;15703;49.588;6.260;2023-02-10T08:58:40;30.27;;;20.57;;
28481;SDS011;15703;49.588;6.260;2023-02-10T09:01:09;31.10;;;21.90;;
28481;SDS011;15703;49.588;6.260;2023-02-10T09:03:31;33.87;;;20.57;;
28481;SDS011;15703;49.588;6.260;2023-02-10T09:05:53;33.90;;;21.63;;
28481;SDS011;15703;49.588;6.260;2023-02-10T09:08:16;36.13;;;22.90;;
28481;SDS011;15703;49.588;6.260;2023-02-10T09:10:39;33.43;;;22.07;;
28481;SDS011;15703;49.588;6.260;2023-02-10T09:13:02;33.23;;;22.67;;
28481;SDS011;15703;49.588;6.260;2023-02-10T09:15:24;32.80;;;22.87;;
28481;SDS011;15703;49.588;6.260;2023-02-10T09:17:47;35.43;;;22.87;;
28481;SDS011;15703;49.588;6.260;2023-02-10T09:20:09;33.67;;;22.13;;
28481;SDS011;15703;49.588;6.260;2023-02-10T09:22:32;34.80;;;23.93;;
28481;SDS011;15703;49.588;6.260;2023-02-10T09:24:55;33.17;;;23.47;;
28481;SDS011;15703;49.588;6.260;2023-02-10T09:27:18;35.97;;;22.60;;
28481;SDS011;15703;49.588;6.260;2023-02-10T09:29:40;32.30;;;22.30;;
28481;SDS011;15703;49.588;6.260;2023-02-10T09:32:03;29.33;;;21.83;;
28481;SDS011;15703;49.588;6.260;2023-02-10T09:34:25;35.83;;;23.00;;
28481;SDS011;15703;49.588;6.260;2023-02-10T09:36:51;35.70;;;21.50;;
28481;SDS011;15703;49.588;6.260;2023-02-10T09:39:16;33.27;;;22.27;;
28481;SDS011;15703;49.588;6.260;2023-02-10T09:41:41;32.30;;;21.00;;
28481;SDS011;15703;49.588;6.260;2023-02-10T09:44:20;28.70;;;22.10;;
28481;SDS011;15703;49.588;6.260;2023-02-10T09:54:08;32.00;;;22.30;;
28481;SDS011;15703;49.588;6.260;2023-02-10T09:56:31;32.93;;;22.07;;
28481;SDS011;15703;49.588;6.260;2023-02-10T09:58:54;32.40;;;21.93;;
28481;SDS011;15703;49.588;6.260;2023-02-10T10:01:21;31.60;;;21.17;;
28481;SDS011;15703;49.588;6.260;2023-02-10T10:03:48;31.87;;;22.30;;
28481;SDS011;15703;49.588;6.260;2023-02-10T10:11:03;35.03;;;22.57;;
28481;SDS011;15703;49.588;6.260;2023-02-10T10:13:28;32.80;;;21.83;;
28481;SDS011;15703;49.588;6.260;2023-02-10T10:18:53;36.73;;;23.97;;
28481;SDS011;15703;49.588;6.260;2023-02-10T10:21:28;35.20;;;23.00;;
28481;SDS011;15703;49.588;6.260;2023-02-10T10:23:56;35.63;;;24.90;;
28481;SDS011;15703;49.588;6.260;2023-02-10T10:29:18;34.33;;;23.37;;
28481;SDS011;15703;49.588;6.260;2023-02-10T10:31:44;36.20;;;23.20;;
28481;SDS011;15703;49.588;6.260;2023-02-10T10:34:10;40.43;;;23.70;;
28481;SDS011;15703;49.588;6.260;2023-02-10T10:36:36;31.37;;;21.53;;
28481;SDS011;15703;49.588;6.260;2023-02-10T10:38:59;33.47;;;22.97;;
28481;SDS011;15703;49.588;6.260;2023-02-10T10:41:23;33.47;;;24.07;;
28481;SDS011;15703;49.588;6.260;2023-02-10T10:43:51;34.17;;;23.47;;
28481;SDS011;15703;49.588;6.260;2023-02-10T10:48:36;36.03;;;23.33;;
28481;SDS011;15703;49.588;6.260;2023-02-10T10:51:04;35.37;;;22.17;;
28481;SDS011;15703;49.588;6.260;2023-02-10T10:56:00;36.00;;;22.97;;
28481;SDS011;15703;49.588;6.260;2023-02-10T10:58:25;36.50;;;23.20;;
28481;SDS011;15703;49.588;6.260;2023-02-10T11:00:50;37.63;;;24.37;;
28481;SDS011;15703;49.588;6.260;2023-02-10T11:03:13;37.50;;;24.50;;
28481;SDS011;15703;49.588;6.260;2023-02-10T11:05:37;44.10;;;25.87;;
28481;SDS011;15703;49.588;6.260;2023-02-10T11:08:03;35.57;;;22.80;;
28481;SDS011;15703;49.588;6.260;2023-02-10T11:10:30;39.97;;;25.03;;
28481;SDS011;15703;49.588;6.260;2023-02-10T11:12:55;39.97;;;25.37;;
28481;SDS011;15703;49.588;6.260;2023-02-10T11:17:48;36.20;;;23.40;;
28481;SDS011;15703;49.588;6.260;2023-02-10T11:22:39;37.17;;;24.53;;
28481;SDS011;15703;49.588;6.260;2023-02-10T11:25:03;35.53;;;23.90;;
28481;SDS011;15703;49.588;6.260;2023-02-10T11:27:27;41.50;;;24.13;;
28481;SDS011;15703;49.588;6.260;2023-02-10T11:29:51;39.87;;;25.43;;
28481;SDS011;15703;49.588;6.260;2023-02-10T11:32:49;37.93;;;25.90;;
28481;SDS011;15703;49.588;6.260;2023-02-10T11:35:14;47.27;;;26.20;;
28481;SDS011;15703;49.588;6.260;2023-02-10T11:37:38;35.20;;;25.00;;
28481;SDS011;15703;49.588;6.260;2023-02-10T11:40:02;43.20;;;25.20;;
28481;SDS011;15703;49.588;6.260;2023-02-10T11:42:30;35.63;;;24.73;;
28481;SDS011;15703;49.588;6.260;2023-02-10T11:44:55;38.70;;;24.90;;
28481;SDS011;15703;49.588;6.260;2023-02-10T11:47:18;42.20;;;26.13;;
28481;SDS011;15703;49.588;6.260;2023-02-10T11:49:45;42.20;;;25.20;;
28481;SDS011;15703;49.588;6.260;2023-02-10T11:52:11;40.07;;;25.83;;
28481;SDS011;15703;49.588;6.260;2023-02-10T11:54:33;41.60;;;24.83;;
28481;SDS011;15703;49.588;6.260;2023-02-10T11:57:00;43.53;;;25.13;;
28481;SDS011;15703;49.588;6.260;2023-02-10T11:59:56;41.43;;;25.80;;
28481;SDS011;15703;49.588;6.260;2023-02-10T12:04:55;47.57;;;27.33;;
28481;SDS011;15703;49.588;6.260;2023-02-10T12:12:33;41.57;;;25.60;;
28481;SDS011;15703;49.588;6.260;2023-02-10T12:15:03;42.60;;;25.60;;
28481;SDS011;15703;49.588;6.260;2023-02-10T12:17:31;40.27;;;26.87;;
28481;SDS011;15703;49.588;6.260;2023-02-10T12:22:25;59.63;;;34.23;;
28481;SDS011;15703;49.588;6.260;2023-02-10T12:24:53;78.63;;;44.87;;
28481;SDS011;15703;49.588;6.260;2023-02-10T12:27:22;43.30;;;28.00;;
28481;SDS011;15703;49.588;6.260;2023-02-10T12:30:26;50.33;;;27.67;;
28481;SDS011;15703;49.588;6.260;2023-02-10T12:32:50;45.37;;;27.57;;
28481;SDS011;15703;49.588;6.260;2023-02-10T12:38:03;42.97;;;27.43;;
28481;SDS011;15703;49.588;6.260;2023-02-10T12:40:39;44.77;;;28.03;;
28481;SDS011;15703;49.588;6.260;2023-02-10T12:43:11;46.13;;;27.60;;
28481;SDS011;15703;49.588;6.260;2023-02-10T12:53:12;40.13;;;24.27;;
28481;SDS011;15703;49.588;6.260;2023-02-10T12:58:16;41.30;;;24.90;;
28481;SDS011;15703;49.588;6.260;2023-02-10T13:00:45;42.93;;;25.30;;
28481;SDS011;15703;49.588;6.260;2023-02-10T13:03:14;37.63;;;23.57;;
28481;SDS011;15703;49.588;6.260;2023-02-10T13:05:39;43.47;;;24.80;;
28481;SDS011;15703;49.588;6.260;2023-02-10T13:08:02;42.93;;;26.33;;
28481;SDS011;15703;49.588;6.260;2023-02-10T13:10:29;41.63;;;26.73;;
28481;SDS011;15703;49.588;6.260;2023-02-10T13:12:53;41.93;;;25.40;;
28481;SDS011;15703;49.588;6.260;2023-02-10T13:15:23;42.33;;;25.27;;
28481;SDS011;15703;49.588;6.260;2023-02-10T13:17:47;41.70;;;25.43;;
28481;SDS011;15703;49.588;6.260;2023-02-10T13:20:22;40.13;;;25.50;;
28481;SDS011;15703;49.588;6.260;2023-02-10T13:22:53;38.60;;;24.77;;
28481;SDS011;15703;49.588;6.260;2023-02-10T13:25:18;43.53;;;24.27;;
28481;SDS011;15703;49.588;6.260;2023-02-10T13:32:37;41.80;;;25.13;;
28481;SDS011;15703;49.588;6.260;2023-02-10T13:35:04;35.97;;;23.67;;
28481;SDS011;15703;49.588;6.260;2023-02-10T13:37:44;34.67;;;23.97;;
28481;SDS011;15703;49.588;6.260;2023-02-10T13:40:27;37.97;;;23.47;;
28481;SDS011;15703;49.588;6.260;2023-02-10T13:42:54;38.33;;;23.10;;
28481;SDS011;15703;49.588;6.260;2023-02-10T13:45:19;41.80;;;22.90;;
28481;SDS011;15703;49.588;6.260;2023-02-10T13:50:18;39.50;;;23.83;;
28481;SDS011;15703;49.588;6.260;2023-02-10T13:57:51;37.37;;;24.43;;
28481;SDS011;15703;49.588;6.260;2023-02-10T14:02:36;39.20;;;25.50;;
28481;SDS011;15703;49.588;6.260;2023-02-10T14:04:59;39.00;;;25.43;;
28481;SDS011;15703;49.588;6.260;2023-02-10T14:09:48;35.30;;;23.70;;
28481;SDS011;15703;49.588;6.260;2023-02-10T14:12:24;38.77;;;25.90;;
28481;SDS011;15703;49.588;6.260;2023-02-10T14:14:47;35.23;;;24.17;;
28481;SDS011;15703;49.588;6.260;2023-02-10T14:19:40;39.37;;;26.80;;
28481;SDS011;15703;49.588;6.260;2023-02-10T14:22:02;37.37;;;25.63;;
28481;SDS011;15703;49.588;6.260;2023-02-10T14:24:30;39.20;;;24.97;;
28481;SDS011;15703;49.588;6.260;2023-02-10T14:27:11;41.93;;;26.07;;
28481;SDS011;15703;49.588;6.260;2023-02-10T14:29:35;39.20;;;26.17;;
28481;SDS011;15703;49.588;6.260;2023-02-10T14:32:02;34.47;;;23.20;;
28481;SDS011;15703;49.588;6.260;2023-02-10T14:34:26;35.20;;;23.30;;
28481;SDS011;15703;49.588;6.260;2023-02-10T14:36:52;41.27;;;24.90;;
28481;SDS011;15703;49.588;6.260;2023-02-10T14:39:15;39.37;;;23.20;;
28481;SDS011;15703;49.588;6.260;2023-02-10T14:41:38;42.93;;;24.13;;
28481;SDS011;15703;49.588;6.260;2023-02-10T14:44:01;37.60;;;24.53;;
28481;SDS011;15703;49.588;6.260;2023-02-10T14:46:25;42.37;;;25.40;;
28481;SDS011;15703;49.588;6.260;2023-02-10T14:48:48;39.97;;;24.37;;
28481;SDS011;15703;49.588;6.260;2023-02-10T14:51:20;33.67;;;24.93;;
28481;SDS011;15703;49.588;6.260;2023-02-10T14:53:43;34.00;;;22.87;;
28481;SDS011;15703;49.588;6.260;2023-02-10T14:56:05;34.87;;;24.20;;
28481;SDS011;15703;49.588;6.260;2023-02-10T14:58:28;33.57;;;22.37;;
28481;SDS011;15703;49.588;6.260;2023-02-10T15:00:58;31.43;;;21.77;;
28481;SDS011;15703;49.588;6.260;2023-02-10T15:03:22;36.40;;;22.00;;
28481;SDS011;15703;49.588;6.260;2023-02-10T15:05:48;33.27;;;22.07;;
28481;SDS011;15703;49.588;6.260;2023-02-10T15:08:14;39.37;;;23.13;;
28481;SDS011;15703;49.588;6.260;2023-02-10T15:10:41;35.00;;;22.40;;
28481;SDS011;15703;49.588;6.260;2023-02-10T15:13:08;33.03;;;22.77;;
28481;SDS011;15703;49.588;6.260;2023-02-10T15:15:34;37.80;;;24.13;;
28481;SDS011;15703;49.588;6.260;2023-02-10T15:18:08;33.47;;;23.40;;
28481;SDS011;15703;49.588;6.260;2023-02-10T15:20:33;38.43;;;22.57;;
28481;SDS011;15703;49.588;6.260;2023-02-10T15:27:40;30.77;;;21.40;;
28481;SDS011;15703;49.588;6.260;2023-02-10T15:30:07;37.00;;;22.50;;
28481;SDS011;15703;49.588;6.260;2023-02-10T15:32:31;36.97;;;23.67;;
28481;SDS011;15703;49.588;6.260;2023-02-10T15:34:54;36.90;;;22.97;;
28481;SDS011;15703;49.588;6.260;2023-02-10T15:37:26;35.73;;;22.93;;
28481;SDS011;15703;49.588;6.260;2023-02-10T15:39:57;37.10;;;23.33;;
28481;SDS011;15703;49.588;6.260;2023-02-10T15:42:20;39.00;;;23.23;;
28481;SDS011;15703;49.588;6.260;2023-02-10T15:44:46;35.00;;;22.83;;
28481;SDS011;15703;49.588;6.260;2023-02-10T15:49:41;34.30;;;23.40;;
28481;SDS011;15703;49.588;6.260;2023-02-10T15:52:03;34.63;;;21.20;;